Nearby METAR Reports

 

LGTS - THESALONIKI, GR
Distance from station: 85km
: 27/10/2020 02:50


: 9 km/h
: 11°C
: 7°C
: 77%
: 1015 hPa
:
Visibility: greater than 10 km
2020/10/27 00:50 LGTS 270050Z 12005KT CAVOK 11/07 Q1015 NOSIG
LGAV - ATHENS, GR
Distance from station: 546km
: 27/10/2020 02:50
Few Clouds
Few Clouds

: 4 km/h
: 10°C
: 9°C
: 94%
: 1015 hPa
Clouds: Few Clouds
Visibility: 10 km
Cloud details: Few Clouds 610 m
2020/10/27 00:50 LGAV 270050Z 29002KT 9999 FEW020 10/09 Q1015 NOSIG
 
LGKZ - KOZANI, GR
Distance from station: 130km
: 27/10/2020 02:50


: 9 km/h
: 9°C
Wind Chill: 7°C
: 5°C
: 76%
: 1016 hPa
2020/10/27 00:50 LGKZ 270050Z AUTO 36005KT //// // ////// 09/05 Q1016 RE//
LGIO - IOANNINA, GR
Distance from station: 265km
: 27/10/2020 02:50

   varies
: varies 2 km/h
: 4°C
: 4°C
: 100%
: 1016 hPa
2020/10/27 00:50 LGIO 270050Z AUTO VRB01KT //// // ////// 04/04 Q1016 RE//
 
LGKV - KABALA, GR
Distance from station: 220km
: 27/10/2020 02:50


: 7 km/h
: 11°C
: 9°C
: 88%
: 1014 hPa
:
Visibility: greater than 10 km
2020/10/27 00:50 LGKV 270050Z 10004KT CAVOK 11/09 Q1014
LGAL - ALEXANDROUPOLI, GR
Distance from station: 367km
: 26/10/2020 21:20
NOT Current
Few Clouds
Few Clouds

: 9 km/h
: 14°C
: 13°C
: 94%
: 1014 hPa
Clouds: Few Clouds
Visibility: 10 km
Cloud details: Few Clouds 762 m
2020/10/26 19:20 LGAL 261920Z 32005KT 9999 FEW025 14/13 Q1014
 
LGSA - CHANIA,CRETE, GR
Distance from station: 866km
: 27/10/2020 02:20
Few Clouds
Few Clouds
   varies
: varies 6 km/h
: 16°C
: 12°C
: 77%
: 1015 hPa
Clouds: Few Clouds
Visibility: 10 km
Cloud details: Few Clouds 762 m
2020/10/27 00:20 LGSA 270020Z VRB03KT 9999 FEW025 16/12 Q1015
LGIR - HERAKLIO, CRETE, GR
Distance from station: 882km
: 27/10/2020 03:20
Few Clouds
Few Clouds
   calm
:
: 16°C
: 14°C
: 88%
: 1014 hPa
Clouds: Few Clouds
Visibility: 10 km
Cloud details: Few Clouds 762 m
2020/10/27 01:20 LGIR 270120Z 00000KT 9999 FEW025 16/14 Q1014 NOSIG
 
LGRP - RHODES, GR
Distance from station: 1.318km
: 27/10/2020 03:20

   calm
:
: 21°C
: 18°C
: 83%
: 1012 hPa
Clouds:
Visibility: 10 km
Cloud details: 488 m
2020/10/27 01:20 LGRP 270120Z 00000KT 9999 SCT016 21/18 Q1012 NOSIG
LGLR - LARISSA, GR
Distance from station: 182km
: 27/10/2020 02:50

   calm
:
: 8°C
: 4°C
: 76%
: 1014 hPa
:
Visibility: greater than 10 km
2020/10/27 00:50 LGLR 270050Z 00000KT CAVOK 08/04 Q1014 BLU